sensor_id;sensor_type;location;lat;lon;timestamp;pressure;altitude;pressure_sealevel;temperature;humidity
6343;BME280;3204;42.698;23.298;2023-03-13T00:01:21;95143.22;;;4.08;51.88
6343;BME280;3204;42.698;23.298;2023-03-13T00:03:46;95145.09;;;4.07;52.37
6343;BME280;3204;42.698;23.298;2023-03-13T00:06:12;95146.44;;;4.15;51.70
6343;BME280;3204;42.698;23.298;2023-03-13T00:08:38;95138.09;;;4.06;51.69
6343;BME280;3204;42.698;23.298;2023-03-13T00:11:06;95146.41;;;4.05;51.89
6343;BME280;3204;42.698;23.298;2023-03-13T00:13:32;95147.72;;;3.97;51.89
6343;BME280;3204;42.698;23.298;2023-03-13T00:16:06;95144.03;;;4.03;51.59
6343;BME280;3204;42.698;23.298;2023-03-13T00:18:32;95146.16;;;4.06;52.33
6343;BME280;3204;42.698;23.298;2023-03-13T00:20:59;95152.84;;;4.04;52.45
6343;BME280;3204;42.698;23.298;2023-03-13T00:23:25;95167.06;;;3.94;52.20
6343;BME280;3204;42.698;23.298;2023-03-13T00:26:10;95156.03;;;3.96;51.94
6343;BME280;3204;42.698;23.298;2023-03-13T00:28:38;95155.78;;;4.02;52.78
6343;BME280;3204;42.698;23.298;2023-03-13T00:31:05;95162.81;;;4.03;52.44
6343;BME280;3204;42.698;23.298;2023-03-13T00:33:32;95156.84;;;3.96;52.01
6343;BME280;3204;42.698;23.298;2023-03-13T00:36:02;95159.78;;;3.95;51.95
6343;BME280;3204;42.698;23.298;2023-03-13T00:38:29;95160.34;;;3.92;52.20
6343;BME280;3204;42.698;23.298;2023-03-13T00:41:02;95158.72;;;3.96;53.01
6343;BME280;3204;42.698;23.298;2023-03-13T00:43:28;95166.78;;;4.01;52.17
6343;BME280;3204;42.698;23.298;2023-03-13T00:45:54;95164.66;;;3.98;52.07
6343;BME280;3204;42.698;23.298;2023-03-13T00:48:20;95160.06;;;3.98;53.10
6343;BME280;3204;42.698;23.298;2023-03-13T00:50:46;95164.66;;;3.98;52.63
6343;BME280;3204;42.698;23.298;2023-03-13T00:53:11;95160.06;;;3.98;51.93
6343;BME280;3204;42.698;23.298;2023-03-13T00:55:37;95159.78;;;3.95;52.79
6343;BME280;3204;42.698;23.298;2023-03-13T00:58:02;95145.00;;;3.82;52.27
6343;BME280;3204;42.698;23.298;2023-03-13T01:00:27;95150.59;;;3.76;52.75
6343;BME280;3204;42.698;23.298;2023-03-13T01:02:53;95153.34;;;3.91;52.10
6343;BME280;3204;42.698;23.298;2023-03-13T01:05:18;95151.72;;;3.90;52.38
6343;BME280;3204;42.698;23.298;2023-03-13T01:07:44;95152.53;;;3.90;51.72
6343;BME280;3204;42.698;23.298;2023-03-13T01:10:09;95141.78;;;3.80;52.13
6343;BME280;3204;42.698;23.298;2023-03-13T01:12:35;95145.00;;;3.82;52.27
6343;BME280;3204;42.698;23.298;2023-03-13T01:15:01;95146.91;;;3.87;51.65
6343;BME280;3204;42.698;23.298;2023-03-13T01:17:26;95150.59;;;3.76;51.81
6343;BME280;3204;42.698;23.298;2023-03-13T01:19:55;95139.34;;;3.74;51.52
6343;BME280;3204;42.698;23.298;2023-03-13T01:22:20;95146.34;;;3.85;51.52
6343;BME280;3204;42.698;23.298;2023-03-13T01:24:46;95148.78;;;3.86;51.97
6343;BME280;3204;42.698;23.298;2023-03-13T01:27:14;95151.19;;;3.83;52.53
6343;BME280;3204;42.698;23.298;2023-03-13T01:29:39;95158.09;;;3.74;53.11
6343;BME280;3204;42.698;23.298;2023-03-13T01:32:05;95158.63;;;3.71;52.60
6343;BME280;3204;42.698;23.298;2023-03-13T01:34:31;95168.25;;;3.67;52.99
6343;BME280;3204;42.698;23.298;2023-03-13T01:36:56;95165.31;;;3.68;52.94
6343;BME280;3204;42.698;23.298;2023-03-13T01:39:22;95163.97;;;3.66;52.88
6343;BME280;3204;42.698;23.298;2023-03-13T01:41:47;95167.69;;;3.60;53.02
6343;BME280;3204;42.698;23.298;2023-03-13T01:44:55;95171.13;;;3.55;52.95
6343;BME280;3204;42.698;23.298;2023-03-13T01:47:21;95165.22;;;3.53;53.39
6343;BME280;3204;42.698;23.298;2023-03-13T01:49:48;95176.44;;;3.45;53.28
6343;BME280;3204;42.698;23.298;2023-03-13T01:52:18;95171.91;;;3.46;53.29
6343;BME280;3204;42.698;23.298;2023-03-13T01:54:49;95168.72;;;3.49;52.75
6343;BME280;3204;42.698;23.298;2023-03-13T01:57:29;95173.28;;;3.53;53.11
6343;BME280;3204;42.698;23.298;2023-03-13T02:02:27;95184.44;;;3.40;54.16
6343;BME280;3204;42.698;23.298;2023-03-13T02:04:59;95171.03;;;3.40;53.66
6343;BME280;3204;42.698;23.298;2023-03-13T02:07:33;95166.19;;;3.32;54.86
6343;BME280;3204;42.698;23.298;2023-03-13T02:10:02;95169.41;;;3.34;55.35
6343;BME280;3204;42.698;23.298;2023-03-13T02:12:35;95174.09;;;3.54;54.63
6343;BME280;3204;42.698;23.298;2023-03-13T02:15:22;95178.13;;;3.56;54.32
6343;BME280;3204;42.698;23.298;2023-03-13T02:17:49;95179.97;;;3.51;54.92
6343;BME280;3204;42.698;23.298;2023-03-13T02:20:18;95185.31;;;3.46;55.35
6343;BME280;3204;42.698;23.298;2023-03-13T02:25:48;95189.22;;;3.28;55.62
6343;BME280;3204;42.698;23.298;2023-03-13T02:30:43;95200.94;;;3.22;56.61
6343;BME280;3204;42.698;23.298;2023-03-13T02:33:11;95207.44;;;3.31;55.91
6343;BME280;3204;42.698;23.298;2023-03-13T02:35:38;95213.63;;;3.32;56.31
6343;BME280;3204;42.698;23.298;2023-03-13T02:38:06;95220.56;;;3.28;56.87
6343;BME280;3204;42.698;23.298;2023-03-13T02:40:36;95222.03;;;3.14;57.55
6343;BME280;3204;42.698;23.298;2023-03-13T02:43:06;95230.94;;;3.19;56.82
6343;BME280;3204;42.698;23.298;2023-03-13T02:45:33;95231.53;;;2.95;57.55
6343;BME280;3204;42.698;23.298;2023-03-13T02:47:59;95237.41;;;3.23;56.70
6343;BME280;3204;42.698;23.298;2023-03-13T02:50:24;95233.59;;;3.14;56.48
6343;BME280;3204;42.698;23.298;2023-03-13T02:52:56;95241.56;;;3.09;56.42
6343;BME280;3204;42.698;23.298;2023-03-13T02:55:27;95240.25;;;3.12;56.52
6343;BME280;3204;42.698;23.298;2023-03-13T02:57:54;95245.28;;;3.35;56.43
6343;BME280;3204;42.698;23.298;2023-03-13T03:00:19;95247.22;;;3.13;56.25
6343;BME280;3204;42.698;23.298;2023-03-13T03:02:50;95246.03;;;2.99;56.49
6343;BME280;3204;42.698;23.298;2023-03-13T03:05:16;95232.84;;;2.92;57.60
6343;BME280;3204;42.698;23.298;2023-03-13T03:07:41;95239.66;;;3.05;57.01
6343;BME280;3204;42.698;23.298;2023-03-13T03:10:07;95242.59;;;2.77;57.72
6343;BME280;3204;42.698;23.298;2023-03-13T03:12:33;95237.66;;;2.64;57.47
6343;BME280;3204;42.698;23.298;2023-03-13T03:14:58;95253.41;;;2.60;58.82
6343;BME280;3204;42.698;23.298;2023-03-13T03:17:23;95255.84;;;2.62;58.92
6343;BME280;3204;42.698;23.298;2023-03-13T03:19:49;95257.91;;;2.55;59.06
6343;BME280;3204;42.698;23.298;2023-03-13T03:22:14;95272.91;;;2.56;58.99
6343;BME280;3204;42.698;23.298;2023-03-13T03:24:40;95273.09;;;2.49;58.75
6343;BME280;3204;42.698;23.298;2023-03-13T03:27:05;95284.34;;;2.51;59.80
6343;BME280;3204;42.698;23.298;2023-03-13T03:29:31;95282.81;;;2.55;59.99
6343;BME280;3204;42.698;23.298;2023-03-13T03:31:56;95277.69;;;2.54;60.25
6343;BME280;3204;42.698;23.298;2023-03-13T03:34:22;95278.81;;;2.58;59.35
6343;BME280;3204;42.698;23.298;2023-03-13T03:36:47;95275.75;;;2.71;58.83
6343;BME280;3204;42.698;23.298;2023-03-13T03:39:12;95280.69;;;2.57;59.58
6343;BME280;3204;42.698;23.298;2023-03-13T03:41:38;95289.34;;;2.43;59.99
6343;BME280;3204;42.698;23.298;2023-03-13T03:44:04;95308.09;;;2.43;59.33
6343;BME280;3204;42.698;23.298;2023-03-13T03:46:30;95319.47;;;2.55;59.27
6343;BME280;3204;42.698;23.298;2023-03-13T03:48:55;95313.69;;;2.41;60.52
6343;BME280;3204;42.698;23.298;2023-03-13T03:51:21;95313.75;;;2.25;60.39
6343;BME280;3204;42.698;23.298;2023-03-13T03:53:47;95307.06;;;2.27;60.33
6343;BME280;3204;42.698;23.298;2023-03-13T03:56:12;95312.25;;;2.34;60.85
6343;BME280;3204;42.698;23.298;2023-03-13T03:58:38;95314.69;;;2.35;60.53
6343;BME280;3204;42.698;23.298;2023-03-13T04:01:04;95319.47;;;2.55;60.37
6343;BME280;3204;42.698;23.298;2023-03-13T04:03:29;95322.53;;;2.63;59.54
6343;BME280;3204;42.698;23.298;2023-03-13T04:05:55;95317.72;;;2.44;60.36
6343;BME280;3204;42.698;23.298;2023-03-13T04:08:20;95330.56;;;2.42;60.38
6343;BME280;3204;42.698;23.298;2023-03-13T04:10:46;95336.09;;;2.35;60.71
6343;BME280;3204;42.698;23.298;2023-03-13T04:13:12;95335.38;;;2.40;61.09
6343;BME280;3204;42.698;23.298;2023-03-13T04:15:38;95341.94;;;2.54;60.08
6343;BME280;3204;42.698;23.298;2023-03-13T04:18:04;95343.75;;;2.27;61.51
6343;BME280;3204;42.698;23.298;2023-03-13T04:20:29;95342.69;;;2.28;60.96
6343;BME280;3204;42.698;23.298;2023-03-13T04:22:55;95345.63;;;2.48;60.67
6343;BME280;3204;42.698;23.298;2023-03-13T04:25:21;95346.44;;;2.27;61.34
6343;BME280;3204;42.698;23.298;2023-03-13T04:27:46;95353.63;;;2.26;61.44
6343;BME280;3204;42.698;23.298;2023-03-13T04:30:12;95359.22;;;2.25;61.37
6343;BME280;3204;42.698;23.298;2023-03-13T04:32:38;95359.50;;;2.23;62.05
6343;BME280;3204;42.698;23.298;2023-03-13T04:35:04;95358.81;;;2.33;60.27
6343;BME280;3204;42.698;23.298;2023-03-13T04:37:29;95360.59;;;2.27;60.60
6343;BME280;3204;42.698;23.298;2023-03-13T04:39:55;95377.59;;;2.38;60.65
6343;BME280;3204;42.698;23.298;2023-03-13T04:42:20;95380.75;;;2.35;60.25
6343;BME280;3204;42.698;23.298;2023-03-13T04:44:46;95389.91;;;2.39;60.56
6343;BME280;3204;42.698;23.298;2023-03-13T04:47:11;95391.06;;;2.43;60.38
6343;BME280;3204;42.698;23.298;2023-03-13T04:49:37;95395.72;;;2.31;61.33
6343;BME280;3204;42.698;23.298;2023-03-13T04:52:02;95392.06;;;2.20;61.83
6343;BME280;3204;42.698;23.298;2023-03-13T04:54:28;95395.56;;;2.21;61.78
6343;BME280;3204;42.698;23.298;2023-03-13T04:56:54;95381.84;;;2.17;61.47
6343;BME280;3204;42.698;23.298;2023-03-13T04:59:19;95395.97;;;2.13;61.05
6343;BME280;3204;42.698;23.298;2023-03-13T05:01:45;95392.19;;;2.09;61.65
6343;BME280;3204;42.698;23.298;2023-03-13T05:04:10;95399.72;;;2.12;61.34
6343;BME280;3204;42.698;23.298;2023-03-13T05:06:36;95390.06;;;2.11;61.09
6343;BME280;3204;42.698;23.298;2023-03-13T05:09:02;95388.19;;;2.11;60.74
6343;BME280;3204;42.698;23.298;2023-03-13T05:11:28;95390.72;;;2.01;61.14
6343;BME280;3204;42.698;23.298;2023-03-13T05:13:54;95399.00;;;2.00;61.42
6343;BME280;3204;42.698;23.298;2023-03-13T05:16:19;95409.84;;;2.10;61.34
6343;BME280;3204;42.698;23.298;2023-03-13T05:18:45;95414.09;;;2.27;61.66
6343;BME280;3204;42.698;23.298;2023-03-13T05:21:11;95418.97;;;2.30;60.57
6343;BME280;3204;42.698;23.298;2023-03-13T05:23:36;95422.56;;;2.19;61.51
6343;BME280;3204;42.698;23.298;2023-03-13T05:26:02;95415.91;;;2.22;61.61
6343;BME280;3204;42.698;23.298;2023-03-13T05:28:27;95425.66;;;2.11;61.23
6343;BME280;3204;42.698;23.298;2023-03-13T05:30:52;95428.47;;;2.21;61.52
6343;BME280;3204;42.698;23.298;2023-03-13T05:33:18;95428.81;;;2.08;62.55
6343;BME280;3204;42.698;23.298;2023-03-13T05:35:45;95429.38;;;2.27;62.00
6343;BME280;3204;42.698;23.298;2023-03-13T05:38:11;95431.38;;;2.36;61.63
6343;BME280;3204;42.698;23.298;2023-03-13T05:40:36;95439.25;;;2.26;61.87
6343;BME280;3204;42.698;23.298;2023-03-13T05:43:02;95438.81;;;2.51;60.65
6343;BME280;3204;42.698;23.298;2023-03-13T05:45:27;95431.88;;;2.71;60.01
6343;BME280;3204;42.698;23.298;2023-03-13T05:47:53;95435.34;;;2.93;58.99
6343;BME280;3204;42.698;23.298;2023-03-13T05:50:18;95446.13;;;2.98;58.86
6343;BME280;3204;42.698;23.298;2023-03-13T05:52:44;95444.00;;;3.22;69.50
6343;BME280;3204;42.698;23.298;2023-03-13T05:55:10;95450.59;;;4.62;64.80
6343;BME280;3204;42.698;23.298;2023-03-13T05:57:35;95444.03;;;4.84;81.91
6343;BME280;3204;42.698;23.298;2023-03-13T06:00:01;95450.91;;;4.65;62.56
6343;BME280;3204;42.698;23.298;2023-03-13T06:02:27;95460.69;;;4.45;62.07
6343;BME280;3204;42.698;23.298;2023-03-13T06:04:52;95459.13;;;4.17;61.67
6343;BME280;3204;42.698;23.298;2023-03-13T06:07:18;95455.94;;;4.20;62.04
6343;BME280;3204;42.698;23.298;2023-03-13T06:09:43;95460.50;;;4.20;62.23
6343;BME280;3204;42.698;23.298;2023-03-13T06:12:10;95457.81;;;4.56;62.30
6343;BME280;3204;42.698;23.298;2023-03-13T06:14:36;95454.44;;;4.76;60.08
6343;BME280;3204;42.698;23.298;2023-03-13T06:17:03;95451.88;;;4.96;59.13
6343;BME280;3204;42.698;23.298;2023-03-13T06:19:29;95457.19;;;4.91;59.42
6343;BME280;3204;42.698;23.298;2023-03-13T06:21:55;95465.06;;;5.07;59.27
6343;BME280;3204;42.698;23.298;2023-03-13T06:24:21;95456.28;;;5.22;59.22
6343;BME280;3204;42.698;23.298;2023-03-13T06:26:49;95466.63;;;5.55;58.65
6343;BME280;3204;42.698;23.298;2023-03-13T06:29:15;95458.84;;;5.68;57.47
6343;BME280;3204;42.698;23.298;2023-03-13T06:31:41;95453.13;;;5.40;56.76
6343;BME280;3204;42.698;23.298;2023-03-13T06:34:09;95436.34;;;4.56;58.71
6343;BME280;3204;42.698;23.298;2023-03-13T06:36:35;95437.63;;;4.49;58.92
6343;BME280;3204;42.698;23.298;2023-03-13T06:39:00;95440.44;;;4.69;58.80
6343;BME280;3204;42.698;23.298;2023-03-13T06:41:26;95443.69;;;5.27;57.72
6343;BME280;3204;42.698;23.298;2023-03-13T06:43:52;95450.75;;;5.58;57.35
6343;BME280;3204;42.698;23.298;2023-03-13T06:46:19;95462.72;;;6.07;55.28
6343;BME280;3204;42.698;23.298;2023-03-13T06:48:46;95450.84;;;6.63;55.02
6343;BME280;3204;42.698;23.298;2023-03-13T06:51:14;95451.44;;;7.44;53.91
6343;BME280;3204;42.698;23.298;2023-03-13T06:53:39;95459.09;;;7.17;51.99
6343;BME280;3204;42.698;23.298;2023-03-13T06:56:06;95455.41;;;6.83;53.24
6343;BME280;3204;42.698;23.298;2023-03-13T06:58:31;95444.84;;;7.65;53.67
6343;BME280;3204;42.698;23.298;2023-03-13T07:00:58;95449.50;;;7.98;51.02
6343;BME280;3204;42.698;23.298;2023-03-13T07:03:23;95443.66;;;8.24;50.02
6343;BME280;3204;42.698;23.298;2023-03-13T07:05:55;95450.44;;;8.84;50.21
6343;BME280;3204;42.698;23.298;2023-03-13T07:08:21;95445.47;;;8.39;50.36
6343;BME280;3204;42.698;23.298;2023-03-13T07:10:46;95441.56;;;7.73;51.25
6343;BME280;3204;42.698;23.298;2023-03-13T07:13:15;95457.72;;;7.78;52.57
6343;BME280;3204;42.698;23.298;2023-03-13T07:15:40;95453.06;;;7.40;52.21
6343;BME280;3204;42.698;23.298;2023-03-13T07:18:05;95442.78;;;6.53;54.38
6343;BME280;3204;42.698;23.298;2023-03-13T07:20:31;95441.59;;;7.04;53.81
6343;BME280;3204;42.698;23.298;2023-03-13T07:22:57;95439.06;;;7.81;51.55
6343;BME280;3204;42.698;23.298;2023-03-13T07:25:22;95432.38;;;7.74;50.98
6343;BME280;3204;42.698;23.298;2023-03-13T07:27:49;95437.78;;;7.10;52.43
6343;BME280;3204;42.698;23.298;2023-03-13T07:30:16;95436.91;;;7.30;51.98
6343;BME280;3204;42.698;23.298;2023-03-13T07:32:42;95429.97;;;7.14;52.02
6343;BME280;3204;42.698;23.298;2023-03-13T07:35:07;95437.28;;;7.08;52.05
6343;BME280;3204;42.698;23.298;2023-03-13T07:37:33;95438.94;;;6.89;53.51
6343;BME280;3204;42.698;23.298;2023-03-13T07:39:58;95440.03;;;6.93;53.15
6343;BME280;3204;42.698;23.298;2023-03-13T07:42:23;95440.13;;;7.37;52.13
6343;BME280;3204;42.698;23.298;2023-03-13T07:44:49;95443.97;;;7.21;52.19
6343;BME280;3204;42.698;23.298;2023-03-13T07:47:15;95437.63;;;7.50;52.72
6343;BME280;3204;42.698;23.298;2023-03-13T07:49:40;95439.75;;;8.02;50.37
6343;BME280;3204;42.698;23.298;2023-03-13T07:52:08;95433.31;;;7.54;51.47
6343;BME280;3204;42.698;23.298;2023-03-13T07:54:33;95427.22;;;7.29;52.87
6343;BME280;3204;42.698;23.298;2023-03-13T07:57:01;95433.09;;;7.41;51.36
6343;BME280;3204;42.698;23.298;2023-03-13T07:59:26;95427.09;;;7.54;51.48
6343;BME280;3204;42.698;23.298;2023-03-13T08:01:52;95425.34;;;7.78;52.32
6343;BME280;3204;42.698;23.298;2023-03-13T08:04:17;95421.53;;;8.22;51.12
6343;BME280;3204;42.698;23.298;2023-03-13T08:06:43;95420.72;;;9.07;49.07
6343;BME280;3204;42.698;23.298;2023-03-13T08:09:09;95429.16;;;9.48;47.00
6343;BME280;3204;42.698;23.298;2023-03-13T08:11:37;95425.59;;;9.52;48.64
6343;BME280;3204;42.698;23.298;2023-03-13T08:14:03;95415.78;;;10.49;47.22
6343;BME280;3204;42.698;23.298;2023-03-13T08:16:31;95415.88;;;10.89;45.63
6343;BME280;3204;42.698;23.298;2023-03-13T08:18:59;95417.06;;;10.70;45.09
6343;BME280;3204;42.698;23.298;2023-03-13T08:21:27;95419.13;;;10.91;44.78
6343;BME280;3204;42.698;23.298;2023-03-13T08:23:54;95418.84;;;10.10;46.34
6343;BME280;3204;42.698;23.298;2023-03-13T08:26:22;95418.97;;;10.83;44.52
6343;BME280;3204;42.698;23.298;2023-03-13T08:28:52;95423.66;;;11.09;43.94
6343;BME280;3204;42.698;23.298;2023-03-13T08:31:22;95436.56;;;11.85;43.96
6343;BME280;3204;42.698;23.298;2023-03-13T08:33:49;95427.59;;;10.71;44.66
6343;BME280;3204;42.698;23.298;2023-03-13T08:38:41;95437.03;;;9.86;46.85
6343;BME280;3204;42.698;23.298;2023-03-13T08:41:09;95428.19;;;8.92;48.17
6343;BME280;3204;42.698;23.298;2023-03-13T08:43:34;95431.50;;;8.84;48.79
6343;BME280;3204;42.698;23.298;2023-03-13T08:45:59;95421.69;;;8.93;49.07
6343;BME280;3204;42.698;23.298;2023-03-13T08:48:25;95428.63;;;9.04;48.00
6343;BME280;3204;42.698;23.298;2023-03-13T08:51:05;95428.09;;;9.25;48.25
6343;BME280;3204;42.698;23.298;2023-03-13T08:53:32;95417.66;;;9.37;48.67
6343;BME280;3204;42.698;23.298;2023-03-13T08:55:58;95414.72;;;9.76;47.05
6343;BME280;3204;42.698;23.298;2023-03-13T08:58:24;95412.53;;;9.96;46.92
6343;BME280;3204;42.698;23.298;2023-03-13T09:00:50;95424.84;;;10.90;45.98
6343;BME280;3204;42.698;23.298;2023-03-13T09:03:15;95417.75;;;10.62;44.79
6343;BME280;3204;42.698;23.298;2023-03-13T09:05:42;95415.41;;;10.05;46.33
6343;BME280;3204;42.698;23.298;2023-03-13T09:08:08;95412.50;;;10.33;46.27
6343;BME280;3204;42.698;23.298;2023-03-13T09:10:34;95423.66;;;10.64;45.93
6343;BME280;3204;42.698;23.298;2023-03-13T09:13:00;95419.91;;;10.92;45.19
6343;BME280;3204;42.698;23.298;2023-03-13T09:15:26;95410.88;;;10.96;45.58
6343;BME280;3204;42.698;23.298;2023-03-13T09:17:51;95417.34;;;12.39;43.35
6343;BME280;3204;42.698;23.298;2023-03-13T09:20:17;95417.38;;;12.61;41.99
6343;BME280;3204;42.698;23.298;2023-03-13T09:22:45;95415.44;;;13.36;40.58
6343;BME280;3204;42.698;23.298;2023-03-13T09:25:12;95407.22;;;13.75;39.54
6343;BME280;3204;42.698;23.298;2023-03-13T09:27:38;95419.38;;;14.59;36.70
6343;BME280;3204;42.698;23.298;2023-03-13T09:30:04;95412.41;;;14.95;34.37
6343;BME280;3204;42.698;23.298;2023-03-13T09:32:30;95417.44;;;15.39;33.80
6343;BME280;3204;42.698;23.298;2023-03-13T09:34:56;95411.50;;;15.37;34.42
6343;BME280;3204;42.698;23.298;2023-03-13T09:37:21;95413.91;;;13.21;37.03
6343;BME280;3204;42.698;23.298;2023-03-13T09:39:50;95412.59;;;13.10;37.84
6343;BME280;3204;42.698;23.298;2023-03-13T09:42:19;95411.50;;;14.49;36.21
6343;BME280;3204;42.698;23.298;2023-03-13T09:44:54;95409.97;;;13.36;37.44
6343;BME280;3204;42.698;23.298;2023-03-13T09:47:39;95395.50;;;12.08;38.82
6343;BME280;3204;42.698;23.298;2023-03-13T09:50:33;95390.28;;;11.22;41.35
6343;BME280;3204;42.698;23.298;2023-03-13T09:53:06;95394.00;;;11.67;40.96
6343;BME280;3204;42.698;23.298;2023-03-13T09:55:38;95394.13;;;13.07;38.75
6343;BME280;3204;42.698;23.298;2023-03-13T09:58:23;95390.13;;;14.25;36.92
6343;BME280;3204;42.698;23.298;2023-03-13T10:01:10;95401.66;;;14.05;36.37
6343;BME280;3204;42.698;23.298;2023-03-13T10:03:53;95394.41;;;13.75;36.03
6343;BME280;3204;42.698;23.298;2023-03-13T10:06:20;95394.66;;;13.57;37.22
6343;BME280;3204;42.698;23.298;2023-03-13T10:08:47;95391.69;;;13.36;36.80
6343;BME280;3204;42.698;23.298;2023-03-13T10:11:32;95387.84;;;12.98;37.56
6343;BME280;3204;42.698;23.298;2023-03-13T10:14:13;95379.50;;;13.34;37.61
6343;BME280;3204;42.698;23.298;2023-03-13T10:16:55;95365.69;;;13.86;36.05
6343;BME280;3204;42.698;23.298;2023-03-13T10:19:34;95352.72;;;13.92;35.10
6343;BME280;3204;42.698;23.298;2023-03-13T10:22:03;95357.81;;;13.20;37.11
6343;BME280;3204;42.698;23.298;2023-03-13T10:25:38;95353.03;;;14.07;35.38
6343;BME280;3204;42.698;23.298;2023-03-13T10:27:49;95340.78;;;13.54;35.96
6343;BME280;3204;42.698;23.298;2023-03-13T10:30:23;95345.00;;;13.94;36.55
6343;BME280;3204;42.698;23.298;2023-03-13T10:32:52;95335.44;;;13.32;37.06
6343;BME280;3204;42.698;23.298;2023-03-13T10:35:23;95329.16;;;12.92;37.29
6343;BME280;3204;42.698;23.298;2023-03-13T10:37:49;95333.63;;;14.43;35.57
6343;BME280;3204;42.698;23.298;2023-03-13T10:40:26;95329.44;;;15.75;33.98
6343;BME280;3204;42.698;23.298;2023-03-13T10:42:59;95327.06;;;16.35;32.82
6343;BME280;3204;42.698;23.298;2023-03-13T10:45:31;95329.38;;;16.66;31.17
6343;BME280;3204;42.698;23.298;2023-03-13T10:48:01;95322.22;;;16.73;31.34
6343;BME280;3204;42.698;23.298;2023-03-13T10:50:33;95320.84;;;16.79;31.30
6343;BME280;3204;42.698;23.298;2023-03-13T10:53:48;95321.34;;;14.83;33.76
6343;BME280;3204;42.698;23.298;2023-03-13T10:56:14;95309.09;;;14.26;34.17
6343;BME280;3204;42.698;23.298;2023-03-13T10:58:42;95312.59;;;14.26;34.86
6343;BME280;3204;42.698;23.298;2023-03-13T11:01:29;95303.00;;;14.92;33.71
6343;BME280;3204;42.698;23.298;2023-03-13T11:04:27;95306.75;;;15.95;33.47
6343;BME280;3204;42.698;23.298;2023-03-13T11:07:01;95290.81;;;16.17;32.69
6343;BME280;3204;42.698;23.298;2023-03-13T11:09:27;95288.13;;;16.50;31.92
6343;BME280;3204;42.698;23.298;2023-03-13T11:11:54;95283.91;;;17.21;31.24
6343;BME280;3204;42.698;23.298;2023-03-13T11:14:22;95287.50;;;17.46;30.66
6343;BME280;3204;42.698;23.298;2023-03-13T11:17:02;95283.13;;;17.33;30.74
6343;BME280;3204;42.698;23.298;2023-03-13T11:19:54;95283.34;;;15.85;32.23
6343;BME280;3204;42.698;23.298;2023-03-13T11:22:25;95277.31;;;14.84;34.00
6343;BME280;3204;42.698;23.298;2023-03-13T11:24:56;95270.25;;;13.95;35.30
6343;BME280;3204;42.698;23.298;2023-03-13T11:33:04;95259.22;;;14.63;34.07
6343;BME280;3204;42.698;23.298;2023-03-13T11:35:39;95256.38;;;14.51;34.14
6343;BME280;3204;42.698;23.298;2023-03-13T11:38:39;95254.78;;;14.87;33.81
6343;BME280;3204;42.698;23.298;2023-03-13T11:46:24;95242.34;;;14.69;34.42
6343;BME280;3204;42.698;23.298;2023-03-13T11:56:58;95214.16;;;14.86;34.38
6343;BME280;3204;42.698;23.298;2023-03-13T11:59:52;95212.63;;;15.34;33.95
6343;BME280;3204;42.698;23.298;2023-03-13T12:02:30;95208.69;;;15.85;32.63
6343;BME280;3204;42.698;23.298;2023-03-13T12:05:00;95201.75;;;16.20;32.21
6343;BME280;3204;42.698;23.298;2023-03-13T12:07:40;95200.47;;;15.23;32.72
6343;BME280;3204;42.698;23.298;2023-03-13T12:10:15;95188.72;;;14.27;34.16
6343;BME280;3204;42.698;23.298;2023-03-13T12:13:03;95187.91;;;14.10;34.88
6343;BME280;3204;42.698;23.298;2023-03-13T12:15:36;95181.84;;;13.96;35.07
6343;BME280;3204;42.698;23.298;2023-03-13T12:18:15;95185.91;;;13.39;35.95
6343;BME280;3204;42.698;23.298;2023-03-13T12:20:57;95182.38;;;13.13;35.45
6343;BME280;3204;42.698;23.298;2023-03-13T12:23:39;95179.03;;;13.33;36.13
6343;BME280;3204;42.698;23.298;2023-03-13T12:26:13;95179.66;;;13.21;35.71
6343;BME280;3204;42.698;23.298;2023-03-13T12:28:44;95178.22;;;13.41;34.99
6343;BME280;3204;42.698;23.298;2023-03-13T12:31:32;95175.28;;;13.97;34.66
6343;BME280;3204;42.698;23.298;2023-03-13T12:34:08;95175.66;;;13.53;35.49
6343;BME280;3204;42.698;23.298;2023-03-13T12:39:29;95153.97;;;13.82;34.31
6343;BME280;3204;42.698;23.298;2023-03-13T12:44:32;95174.16;;;13.98;34.70
6343;BME280;3204;42.698;23.298;2023-03-13T12:47:07;95164.28;;;13.51;35.59
6343;BME280;3204;42.698;23.298;2023-03-13T12:49:46;95167.63;;;13.14;36.02
6343;BME280;3204;42.698;23.298;2023-03-13T12:55:39;95171.78;;;13.71;35.11
6343;BME280;3204;42.698;23.298;2023-03-13T13:00:46;95179.94;;;13.96;34.67
6343;BME280;3204;42.698;23.298;2023-03-13T13:08:24;95171.31;;;13.52;35.46
6343;BME280;3204;42.698;23.298;2023-03-13T13:10:50;95169.06;;;13.88;35.30
6343;BME280;3204;42.698;23.298;2023-03-13T13:13:18;95166.59;;;14.12;34.56
6343;BME280;3204;42.698;23.298;2023-03-13T13:16:04;95175.56;;;14.21;33.98
6343;BME280;3204;42.698;23.298;2023-03-13T13:18:35;95166.59;;;14.12;34.75
6343;BME280;3204;42.698;23.298;2023-03-13T13:23:31;95161.78;;;14.09;33.84
6343;BME280;3204;42.698;23.298;2023-03-13T13:28:51;95158.31;;;14.75;33.96
6343;BME280;3204;42.698;23.298;2023-03-13T13:41:59;95145.13;;;15.26;32.99
6343;BME280;3204;42.698;23.298;2023-03-13T13:44:28;95143.25;;;14.98;32.92
6343;BME280;3204;42.698;23.298;2023-03-13T13:46:55;95139.59;;;15.14;32.61
6343;BME280;3204;42.698;23.298;2023-03-13T13:49:23;95144.84;;;14.70;33.60
6343;BME280;3204;42.698;23.298;2023-03-13T13:54:58;95138.78;;;15.14;32.71
6343;BME280;3204;42.698;23.298;2023-03-13T13:57:30;95137.22;;;15.54;32.03
6343;BME280;3204;42.698;23.298;2023-03-13T14:02:30;95137.22;;;16.31;31.15
6343;BME280;3204;42.698;23.298;2023-03-13T14:05:04;95136.16;;;16.44;31.12
6343;BME280;3204;42.698;23.298;2023-03-13T14:07:46;95129.75;;;16.88;30.74
6343;BME280;3204;42.698;23.298;2023-03-13T14:13:16;95131.81;;;16.91;29.93
6343;BME280;3204;42.698;23.298;2023-03-13T14:15:52;95124.38;;;17.04;30.23
6343;BME280;3204;42.698;23.298;2023-03-13T14:18:26;95127.59;;;17.33;29.50
6343;BME280;3204;42.698;23.298;2023-03-13T14:21:02;95119.81;;;17.59;29.00
6343;BME280;3204;42.698;23.298;2023-03-13T14:23:41;95126.25;;;17.79;28.65
6343;BME280;3204;42.698;23.298;2023-03-13T14:26:17;95123.25;;;16.81;29.35
6343;BME280;3204;42.698;23.298;2023-03-13T14:28:57;95121.75;;;16.47;30.08
6343;BME280;3204;42.698;23.298;2023-03-13T14:31:34;95127.38;;;16.18;30.06
6343;BME280;3204;42.698;23.298;2023-03-13T14:34:02;95129.53;;;16.00;29.68
6343;BME280;3204;42.698;23.298;2023-03-13T14:36:29;95119.44;;;16.25;30.01
6343;BME280;3204;42.698;23.298;2023-03-13T14:38:58;95114.69;;;16.46;30.00